createdAt,value
2023-03-22T00:00:56.167Z,1002.80
2023-03-22T00:01:56.154Z,1002.81
2023-03-22T00:02:56.189Z,1002.77
2023-03-22T00:03:56.239Z,1002.79
2023-03-22T00:04:56.135Z,1002.71
2023-03-22T00:05:56.131Z,1002.75
2023-03-22T00:06:56.095Z,1002.69
2023-03-22T00:07:56.104Z,1002.76
2023-03-22T00:08:56.090Z,1002.72
2023-03-22T00:09:56.060Z,1002.68
2023-03-22T00:10:56.074Z,1002.72
2023-03-22T00:11:56.056Z,1002.66
2023-03-22T00:12:56.054Z,1002.66
2023-03-22T00:13:56.018Z,1002.64
2023-03-22T00:14:56.014Z,1002.65
2023-03-22T00:15:56.024Z,1002.65
2023-03-22T00:16:56.000Z,1002.64
2023-03-22T00:17:55.994Z,1002.66
2023-03-22T00:18:55.963Z,1002.66
2023-03-22T00:19:55.966Z,1002.70
2023-03-22T00:20:55.946Z,1002.68
2023-03-22T00:21:55.934Z,1002.68
2023-03-22T00:22:55.935Z,1002.68
2023-03-22T00:23:55.909Z,1002.72
2023-03-22T00:24:55.899Z,1002.69
2023-03-22T00:25:55.881Z,1002.71
2023-03-22T00:26:55.877Z,1002.72
2023-03-22T00:27:55.875Z,1002.73
2023-03-22T00:28:55.858Z,1002.69
2023-03-22T00:29:55.841Z,1002.66
2023-03-22T00:30:55.832Z,1002.66
2023-03-22T00:31:55.816Z,1002.65
2023-03-22T00:32:55.824Z,1002.64
2023-03-22T00:33:55.797Z,1002.62
2023-03-22T00:34:55.786Z,1002.63
2023-03-22T00:35:55.845Z,1002.59
2023-03-22T00:36:55.773Z,1002.60
2023-03-22T00:37:55.768Z,1002.65
2023-03-22T00:38:55.740Z,1002.67
2023-03-22T00:39:55.732Z,1002.66
2023-03-22T00:40:55.718Z,1002.67
2023-03-22T00:41:55.709Z,1002.64
2023-03-22T00:42:55.718Z,1002.64
2023-03-22T00:43:55.689Z,1002.62
2023-03-22T00:44:55.676Z,1002.57
2023-03-22T00:45:55.690Z,1002.57
2023-03-22T00:46:55.669Z,1002.52
2023-03-22T00:47:55.704Z,1002.54
2023-03-22T00:48:55.649Z,1002.55
2023-03-22T00:49:55.630Z,1002.56
2023-03-22T00:50:55.600Z,1002.51
2023-03-22T00:51:55.600Z,1002.48
2023-03-22T00:52:55.617Z,1002.47
2023-03-22T00:53:55.579Z,1002.48
2023-03-22T00:54:55.560Z,1002.44
2023-03-22T00:55:55.564Z,1002.45
2023-03-22T00:56:55.539Z,1002.44
2023-03-22T00:57:55.553Z,1002.50
2023-03-22T00:58:55.523Z,1002.48
2023-03-22T00:59:55.520Z,1002.44
2023-03-22T01:00:55.520Z,1002.43
2023-03-22T01:01:55.490Z,1002.43
2023-03-22T01:02:55.485Z,1002.35
2023-03-22T01:03:55.595Z,1002.43
2023-03-22T01:04:55.463Z,1002.39
2023-03-22T01:05:55.534Z,1002.30
2023-03-22T01:06:55.430Z,1002.35
2023-03-22T01:07:55.439Z,1002.34
2023-03-22T01:08:55.400Z,1002.33
2023-03-22T01:09:55.388Z,1002.38
2023-03-22T01:10:55.381Z,1002.32
2023-03-22T01:11:55.379Z,1002.36
2023-03-22T01:12:55.386Z,1002.38
2023-03-22T01:13:55.347Z,1002.34
2023-03-22T01:14:55.340Z,1002.31
2023-03-22T01:15:55.332Z,1002.39
2023-03-22T01:16:55.387Z,1002.35
2023-03-22T01:17:55.326Z,1002.36
2023-03-22T01:18:55.287Z,1002.35
2023-03-22T01:19:55.281Z,1002.33
2023-03-22T01:20:55.272Z,1002.32
2023-03-22T01:21:55.274Z,1002.29
2023-03-22T01:22:55.265Z,1002.28
2023-03-22T01:23:55.236Z,1002.28
2023-03-22T01:24:55.241Z,1002.21
2023-03-22T01:25:55.216Z,1002.26
2023-03-22T01:26:55.213Z,1002.24
2023-03-22T01:27:55.209Z,1002.21
2023-03-22T01:28:55.176Z,1002.25
2023-03-22T01:29:55.169Z,1002.22
2023-03-22T01:30:55.279Z,1002.20
2023-03-22T01:31:55.143Z,1002.23
2023-03-22T01:32:55.151Z,1002.22
2023-03-22T01:33:55.127Z,1002.15
2023-03-22T01:34:55.108Z,1002.21
2023-03-22T01:35:55.158Z,1002.21
2023-03-22T01:36:55.091Z,1002.15
2023-03-22T01:37:55.112Z,1002.20
2023-03-22T01:38:55.125Z,1002.19
2023-03-22T01:39:55.058Z,1002.16
2023-03-22T01:40:55.041Z,1002.08
2023-03-22T01:41:55.036Z,1002.14
2023-03-22T01:42:55.044Z,1002.08
2023-03-22T01:43:55.015Z,1002.11
2023-03-22T01:44:55.001Z,1002.10
2023-03-22T01:45:55.069Z,1002.06
2023-03-22T01:46:54.978Z,1002.01
2023-03-22T01:47:55.047Z,1002.00
2023-03-22T01:48:54.973Z,1001.97
2023-03-22T01:49:54.963Z,1001.98
2023-03-22T01:50:54.935Z,1001.95
2023-03-22T01:51:54.943Z,1001.92
2023-03-22T01:52:54.934Z,1001.88
2023-03-22T01:53:54.907Z,1001.87
2023-03-22T01:54:54.893Z,1001.94
2023-03-22T01:55:54.884Z,1001.86
2023-03-22T01:56:54.888Z,1001.81
2023-03-22T01:57:54.878Z,1001.81
2023-03-22T01:58:54.855Z,1001.82
2023-03-22T01:59:54.842Z,1001.79
2023-03-22T02:00:54.825Z,1001.79
2023-03-22T02:01:54.821Z,1001.81
2023-03-22T02:02:54.897Z,1001.74
2023-03-22T02:03:54.791Z,1001.76
2023-03-22T02:04:54.783Z,1001.76
2023-03-22T02:05:54.782Z,1001.76
2023-03-22T02:06:54.762Z,1001.72
2023-03-22T02:07:54.765Z,1001.76
2023-03-22T02:08:54.739Z,1001.73
2023-03-22T02:09:54.727Z,1001.73
2023-03-22T02:10:54.710Z,1001.75
2023-03-22T02:11:54.710Z,1001.72
2023-03-22T02:12:54.708Z,1001.69
2023-03-22T02:13:54.686Z,1001.70
2023-03-22T02:14:54.671Z,1001.71
2023-03-22T02:15:54.694Z,1001.70
2023-03-22T02:16:54.744Z,1001.69
2023-03-22T02:17:54.681Z,1001.68
2023-03-22T02:18:54.646Z,1001.66
2023-03-22T02:19:54.620Z,1001.63
2023-03-22T02:20:54.612Z,1001.61
2023-03-22T02:21:54.590Z,1001.65
2023-03-22T02:22:54.597Z,1001.61
2023-03-22T02:23:54.586Z,1001.60
2023-03-22T02:24:54.553Z,1001.57
2023-03-22T02:25:54.549Z,1001.56
2023-03-22T02:26:54.541Z,1001.50
2023-03-22T02:27:54.547Z,1001.44
2023-03-22T02:28:54.511Z,1001.42
2023-03-22T02:29:54.503Z,1001.47
2023-03-22T02:30:54.518Z,1001.53
2023-03-22T02:31:54.483Z,1001.49
2023-03-22T02:32:54.491Z,1001.46
2023-03-22T02:33:54.460Z,1001.48
2023-03-22T02:34:54.441Z,1001.45
2023-03-22T02:35:54.503Z,1001.47
2023-03-22T02:36:54.421Z,1001.49
2023-03-22T02:37:54.436Z,1001.50
2023-03-22T02:38:54.405Z,1001.46
2023-03-22T02:39:54.389Z,1001.47
2023-03-22T02:40:54.374Z,1001.48
2023-03-22T02:41:54.375Z,1001.51
2023-03-22T02:42:54.369Z,1001.49
2023-03-22T02:43:54.348Z,1001.50
2023-03-22T02:44:54.339Z,1001.45
2023-03-22T02:45:54.329Z,1001.45
2023-03-22T02:46:54.369Z,1001.45
2023-03-22T02:47:54.512Z,1001.41
2023-03-22T02:48:54.299Z,1001.39
2023-03-22T02:49:54.279Z,1001.30
2023-03-22T02:50:54.273Z,1001.32
2023-03-22T02:51:54.252Z,1001.28
2023-03-22T02:52:54.264Z,1001.25
2023-03-22T02:53:54.245Z,1001.28
2023-03-22T02:54:54.218Z,1001.28
2023-03-22T02:55:54.211Z,1001.26
2023-03-22T02:56:54.199Z,1001.24
2023-03-22T02:57:54.213Z,1001.23
2023-03-22T02:58:54.170Z,1001.20
2023-03-22T02:59:54.173Z,1001.16
2023-03-22T03:00:54.179Z,1001.15
2023-03-22T03:01:54.174Z,1001.12
2023-03-22T03:02:54.154Z,1001.08
2023-03-22T03:03:54.120Z,1001.11
2023-03-22T03:04:54.104Z,1001.11
2023-03-22T03:05:54.107Z,1001.11
2023-03-22T03:06:54.085Z,1001.21
2023-03-22T03:07:54.096Z,1001.21
2023-03-22T03:08:54.067Z,1001.16
2023-03-22T03:09:54.066Z,1001.15
2023-03-22T03:10:59.412Z,1001.12
2023-03-22T03:11:54.069Z,1001.11
2023-03-22T03:12:54.051Z,1001.10
2023-03-22T03:13:54.020Z,1001.05
2023-03-22T03:14:54.007Z,1001.07
2023-03-22T03:15:54.066Z,1001.14
2023-03-22T03:16:54.080Z,1001.13
2023-03-22T03:17:54.026Z,1001.15
2023-03-22T03:18:53.981Z,1001.12
2023-03-22T03:19:53.948Z,1001.08
2023-03-22T03:20:53.933Z,1001.12
2023-03-22T03:21:53.925Z,1001.09
2023-03-22T03:22:53.904Z,1001.05
2023-03-22T03:23:53.911Z,1001.03
2023-03-22T03:24:54.176Z,1000.99
2023-03-22T03:25:53.883Z,1000.98
2023-03-22T03:26:53.860Z,1000.98
2023-03-22T03:27:53.859Z,1001.06
2023-03-22T03:28:53.837Z,1000.94
2023-03-22T03:29:53.831Z,1000.97
2023-03-22T03:30:53.840Z,1001.02
2023-03-22T03:31:53.856Z,1001.01
2023-03-22T03:32:53.804Z,1001.01
2023-03-22T03:33:53.808Z,1001.01
2023-03-22T03:34:53.773Z,1001.04
2023-03-22T03:35:53.832Z,1001.07
2023-03-22T03:36:53.796Z,1001.08
2023-03-22T03:37:53.750Z,1001.03
2023-03-22T03:38:53.726Z,1001.04
2023-03-22T03:39:53.734Z,1001.03
2023-03-22T03:40:53.712Z,1001.02
2023-03-22T03:41:53.698Z,1001.01
2023-03-22T03:42:53.719Z,1000.97
2023-03-22T03:43:53.677Z,1001.00
2023-03-22T03:44:53.660Z,1001.00
2023-03-22T03:45:53.697Z,1000.97
2023-03-22T03:46:53.638Z,1000.95
2023-03-22T03:47:53.664Z,1000.96
2023-03-22T03:48:53.655Z,1000.96
2023-03-22T03:49:53.618Z,1000.89
2023-03-22T03:50:53.595Z,1000.88
2023-03-22T03:51:53.586Z,1000.86
2023-03-22T03:52:53.579Z,1000.89
2023-03-22T03:53:53.568Z,1000.88
2023-03-22T03:54:53.580Z,1000.88
2023-03-22T03:55:53.543Z,1000.88
2023-03-22T03:56:53.541Z,1000.88
2023-03-22T03:57:53.528Z,1000.87
2023-03-22T03:58:53.516Z,1000.87
2023-03-22T03:59:53.498Z,1000.88
2023-03-22T04:00:53.673Z,1000.91
2023-03-22T04:01:53.542Z,1000.90
2023-03-22T04:02:53.466Z,1000.89
2023-03-22T04:03:53.457Z,1000.88
2023-03-22T04:04:53.442Z,1000.85
2023-03-22T04:05:53.439Z,1000.88
2023-03-22T04:06:53.435Z,1000.85
2023-03-22T04:07:53.433Z,1000.84
2023-03-22T04:08:53.402Z,1000.83
2023-03-22T04:09:53.386Z,1000.80
2023-03-22T04:10:53.374Z,1000.82
2023-03-22T04:11:53.392Z,1000.78
2023-03-22T04:12:53.351Z,1000.83
2023-03-22T04:13:53.346Z,1000.85
2023-03-22T04:14:53.329Z,1000.89
2023-03-22T04:15:53.331Z,1000.85
2023-03-22T04:16:53.399Z,1000.85
2023-03-22T04:17:53.294Z,1000.83
2023-03-22T04:18:53.285Z,1000.80
2023-03-22T04:19:53.283Z,1000.80
2023-03-22T04:20:53.266Z,1000.78
2023-03-22T04:21:53.374Z,1000.77
2023-03-22T04:22:53.247Z,1000.78
2023-03-22T04:23:53.250Z,1000.73
2023-03-22T04:24:53.218Z,1000.75
2023-03-22T04:25:53.209Z,1000.73
2023-03-22T04:26:53.227Z,1000.68
2023-03-22T04:27:53.194Z,1000.65
2023-03-22T04:28:53.175Z,1000.68
2023-03-22T04:29:53.164Z,1000.67
2023-03-22T04:30:53.188Z,1000.71
2023-03-22T04:31:53.195Z,1000.70
2023-03-22T04:32:53.126Z,1000.72
2023-03-22T04:33:53.120Z,1000.69
2023-03-22T04:34:53.121Z,1000.65
2023-03-22T04:35:53.158Z,1000.66
2023-03-22T04:36:53.107Z,1000.66
2023-03-22T04:37:53.084Z,1000.66
2023-03-22T04:38:53.062Z,1000.63
2023-03-22T04:39:53.053Z,1000.64
2023-03-22T04:40:53.046Z,1000.64
2023-03-22T04:41:53.045Z,1000.66
2023-03-22T04:42:53.019Z,1000.65
2023-03-22T04:43:53.008Z,1000.64
2023-03-22T04:44:52.992Z,1000.67
2023-03-22T04:45:53.005Z,1000.63
2023-03-22T04:46:53.048Z,1000.59
2023-03-22T04:47:53.024Z,1000.53
2023-03-22T04:48:52.950Z,1000.55
2023-03-22T04:49:52.973Z,1000.57
2023-03-22T04:50:52.926Z,1000.52
2023-03-22T04:51:52.939Z,1000.52
2023-03-22T04:52:52.906Z,1000.46
2023-03-22T04:53:52.903Z,1000.49
2023-03-22T04:54:52.886Z,1000.49
2023-03-22T04:55:52.881Z,1000.51
2023-03-22T04:56:52.878Z,1000.49
2023-03-22T04:57:52.849Z,1000.50
2023-03-22T04:58:52.864Z,1000.49
2023-03-22T04:59:52.825Z,1000.51
2023-03-22T05:00:52.832Z,1000.51
2023-03-22T05:01:52.866Z,1000.48
2023-03-22T05:02:52.940Z,1000.53
2023-03-22T05:03:52.778Z,1000.53
2023-03-22T05:04:52.821Z,1000.54
2023-03-22T05:05:52.774Z,1000.54
2023-03-22T05:06:52.771Z,1000.51
2023-03-22T05:07:52.738Z,1000.53
2023-03-22T05:08:52.732Z,1000.52
2023-03-22T05:09:52.723Z,1000.47
2023-03-22T05:10:52.711Z,1000.50
2023-03-22T05:11:52.724Z,1000.48
2023-03-22T05:12:52.690Z,1000.46
2023-03-22T05:13:52.666Z,1000.48
2023-03-22T05:14:52.713Z,1000.52
2023-03-22T05:15:52.679Z,1000.54
2023-03-22T05:16:52.664Z,1000.48
2023-03-22T05:17:52.649Z,1000.45
2023-03-22T05:18:52.615Z,1000.48
2023-03-22T05:19:52.612Z,1000.48
2023-03-22T05:20:52.595Z,1000.45
2023-03-22T05:21:52.596Z,1000.42
2023-03-22T05:22:52.575Z,1000.45
2023-03-22T05:23:52.585Z,1000.43
2023-03-22T05:24:52.638Z,1000.40
2023-03-22T05:25:52.531Z,1000.37
2023-03-22T05:26:52.592Z,1000.46
2023-03-22T05:27:52.512Z,1000.42
2023-03-22T05:28:52.503Z,1000.44
2023-03-22T05:29:52.775Z,1000.47
2023-03-22T05:30:53.415Z,1000.48
2023-03-22T05:31:52.514Z,1000.45
2023-03-22T05:32:52.456Z,1000.45
2023-03-22T05:33:52.452Z,1000.49
2023-03-22T05:34:52.453Z,1000.47
2023-03-22T05:35:52.492Z,1000.43
2023-03-22T05:36:52.455Z,1000.47
2023-03-22T05:37:52.409Z,1000.47
2023-03-22T05:38:52.394Z,1000.47
2023-03-22T05:39:52.386Z,1000.46
2023-03-22T05:40:52.378Z,1000.47
2023-03-22T05:41:52.386Z,1000.50
2023-03-22T05:42:52.356Z,1000.45
2023-03-22T05:43:52.342Z,1000.48
2023-03-22T05:44:52.337Z,1000.50
2023-03-22T05:45:52.317Z,1000.48
2023-03-22T05:46:52.378Z,1000.52
2023-03-22T05:47:52.333Z,1000.51
2023-03-22T05:48:52.288Z,1000.51
2023-03-22T05:49:52.270Z,1000.58
2023-03-22T05:50:52.264Z,1000.54
2023-03-22T05:51:52.271Z,1000.56
2023-03-22T05:52:52.240Z,1000.56
2023-03-22T05:53:52.245Z,1000.60
2023-03-22T05:54:52.353Z,1000.59
2023-03-22T05:55:52.202Z,1000.55
2023-03-22T05:56:54.079Z,1000.53
2023-03-22T05:57:52.176Z,1000.50
2023-03-22T05:58:52.204Z,1000.43
2023-03-22T05:59:52.164Z,1000.47
2023-03-22T06:00:52.154Z,1000.44
2023-03-22T06:01:52.206Z,1000.37
2023-03-22T06:02:52.617Z,1000.38
2023-03-22T06:03:52.960Z,1000.40
2023-03-22T06:04:52.807Z,1000.33
2023-03-22T06:05:52.102Z,1000.36
2023-03-22T06:06:52.573Z,1000.33
2023-03-22T06:07:52.136Z,1000.32
2023-03-22T06:08:52.633Z,1000.31
2023-03-22T06:09:52.060Z,1000.34
2023-03-22T06:10:52.037Z,1000.28
2023-03-22T06:11:52.055Z,1000.32
2023-03-22T06:12:53.122Z,1000.37
2023-03-22T06:13:52.086Z,1000.32
2023-03-22T06:14:52.007Z,1000.33
2023-03-22T06:15:52.458Z,1000.32
2023-03-22T06:16:54.585Z,1000.32
2023-03-22T06:17:52.088Z,1000.27
2023-03-22T06:18:51.966Z,1000.26
2023-03-22T06:19:53.155Z,1000.26
2023-03-22T06:20:51.936Z,1000.25
2023-03-22T06:21:51.965Z,1000.26
2023-03-22T06:22:51.922Z,1000.32
2023-03-22T06:23:51.901Z,1000.31
2023-03-22T06:24:51.903Z,1000.26
2023-03-22T06:25:51.876Z,1000.27
2023-03-22T06:26:51.887Z,1000.24
2023-03-22T06:27:51.860Z,1000.24
2023-03-22T06:28:51.849Z,1000.24
2023-03-22T06:29:51.827Z,1000.26
2023-03-22T06:30:51.868Z,1000.28
2023-03-22T06:31:51.831Z,1000.24
2023-03-22T06:32:51.803Z,1000.22
2023-03-22T06:33:53.122Z,1000.16
2023-03-22T06:34:51.774Z,1000.15
2023-03-22T06:35:51.777Z,1000.18
2023-03-22T06:36:51.774Z,1000.18
2023-03-22T06:37:51.729Z,1000.19
2023-03-22T06:38:51.742Z,1000.23
2023-03-22T06:39:51.720Z,1000.20
2023-03-22T06:40:51.693Z,1000.20
2023-03-22T06:41:51.711Z,1000.26
2023-03-22T06:42:51.676Z,1000.28
2023-03-22T06:43:51.663Z,1000.17
2023-03-22T06:44:51.663Z,1000.11
2023-03-22T06:45:51.684Z,1000.16
2023-03-22T06:46:51.672Z,1000.12
2023-03-22T06:47:51.649Z,1000.10
2023-03-22T06:48:51.608Z,1000.14
2023-03-22T06:49:52.598Z,1000.09
2023-03-22T06:50:52.541Z,1000.06
2023-03-22T06:51:51.979Z,1000.03
2023-03-22T06:52:52.215Z,1000.03
2023-03-22T06:53:51.550Z,1000.06
2023-03-22T06:54:51.538Z,1000.01
2023-03-22T06:55:53.734Z,1000.08
2023-03-22T06:56:51.517Z,1000.05
2023-03-22T06:57:51.539Z,1000.04
2023-03-22T06:58:51.523Z,1000.02
2023-03-22T06:59:51.481Z,1000.07
2023-03-22T07:00:51.472Z,1000.05
2023-03-22T07:01:51.461Z,1000.05
2023-03-22T07:02:52.779Z,1000.04
2023-03-22T07:03:51.437Z,1000.05
2023-03-22T07:04:51.461Z,1000.06
2023-03-22T07:05:51.411Z,1000.10
2023-03-22T07:06:52.159Z,1000.18
2023-03-22T07:07:51.386Z,1000.15
2023-03-22T07:08:52.116Z,1000.12
2023-03-22T07:09:51.373Z,1000.06
2023-03-22T07:10:51.392Z,1000.08
2023-03-22T07:11:51.359Z,1000.12
2023-03-22T07:12:51.340Z,1000.11
2023-03-22T07:13:51.337Z,1000.07
2023-03-22T07:14:51.319Z,1000.08
2023-03-22T07:15:51.313Z,1000.01
2023-03-22T07:16:51.312Z,1000.04
2023-03-22T07:17:51.290Z,999.97
2023-03-22T07:18:51.289Z,999.95
2023-03-22T07:19:51.255Z,999.98
2023-03-22T07:20:51.262Z,999.94
2023-03-22T07:21:51.260Z,999.94
2023-03-22T07:22:51.237Z,999.94
2023-03-22T07:23:51.232Z,999.94
2023-03-22T07:24:57.748Z,999.95
2023-03-22T07:25:51.198Z,999.90
2023-03-22T07:26:51.211Z,999.94
2023-03-22T07:27:51.174Z,999.96
2023-03-22T07:28:51.179Z,999.94
2023-03-22T07:29:51.154Z,999.95
2023-03-22T07:30:51.142Z,1000.00
2023-03-22T07:31:51.223Z,1000.01
2023-03-22T07:32:51.126Z,1000.06
2023-03-22T07:33:51.108Z,1000.06
2023-03-22T07:34:51.095Z,1000.11
2023-03-22T07:35:51.144Z,1000.17
2023-03-22T07:36:51.113Z,1000.05
2023-03-22T07:37:51.071Z,1000.13
2023-03-22T07:38:51.051Z,1000.11
2023-03-22T07:39:51.041Z,1000.03
2023-03-22T07:40:51.034Z,1000.04
2023-03-22T07:41:51.042Z,1000.01
2023-03-22T07:42:51.018Z,1000.03
2023-03-22T07:43:55.462Z,999.98
2023-03-22T07:44:51.073Z,999.97
2023-03-22T07:45:50.987Z,999.98
2023-03-22T07:46:51.072Z,999.89
2023-03-22T07:47:51.040Z,999.90
2023-03-22T07:48:50.948Z,999.93
2023-03-22T07:49:50.944Z,999.92
2023-03-22T07:50:50.935Z,999.98
2023-03-22T07:51:50.919Z,999.92
2023-03-22T07:52:50.967Z,999.91
2023-03-22T07:53:50.886Z,999.85
2023-03-22T07:54:50.884Z,999.96
2023-03-22T07:55:50.863Z,999.99
2023-03-22T07:56:50.867Z,999.84
2023-03-22T07:57:50.849Z,999.84
2023-03-22T07:58:50.901Z,999.88
2023-03-22T07:59:50.821Z,999.89
2023-03-22T08:00:50.913Z,999.87
2023-03-22T08:01:50.829Z,999.73
2023-03-22T08:02:50.820Z,999.79
2023-03-22T08:03:50.812Z,999.84
2023-03-22T08:04:52.687Z,999.83
2023-03-22T08:05:50.761Z,999.78
2023-03-22T08:06:50.756Z,999.81
2023-03-22T08:07:50.734Z,999.82
2023-03-22T08:08:50.759Z,999.83
2023-03-22T08:09:50.719Z,999.83
2023-03-22T08:10:50.741Z,999.89
2023-03-22T08:11:50.718Z,999.82
2023-03-22T08:12:50.785Z,999.84
2023-03-22T08:13:50.658Z,999.79
2023-03-22T08:14:50.812Z,999.87
2023-03-22T08:15:50.728Z,999.86
2023-03-22T08:16:50.640Z,999.83
2023-03-22T08:17:50.614Z,999.79
2023-03-22T08:18:50.695Z,999.80
2023-03-22T08:19:50.773Z,999.80
2023-03-22T08:20:50.589Z,999.86
2023-03-22T08:21:50.664Z,999.84
2023-03-22T08:22:50.563Z,999.81
2023-03-22T08:23:50.560Z,999.76
2023-03-22T08:24:50.625Z,999.83
2023-03-22T08:25:50.590Z,999.81
2023-03-22T08:26:50.526Z,999.85
2023-03-22T08:27:50.555Z,999.89
2023-03-22T08:28:50.528Z,999.91
2023-03-22T08:29:50.517Z,999.89
2023-03-22T08:30:50.496Z,999.87
2023-03-22T08:31:50.647Z,999.92
2023-03-22T08:32:50.451Z,999.93
2023-03-22T08:33:50.439Z,999.93
2023-03-22T08:34:50.434Z,999.90
2023-03-22T08:35:50.505Z,999.87
2023-03-22T08:36:50.406Z,999.92
2023-03-22T08:37:51.447Z,999.93
2023-03-22T08:38:50.396Z,999.94
2023-03-22T08:39:50.402Z,999.89
2023-03-22T08:40:50.360Z,999.92
2023-03-22T08:41:50.343Z,999.87
2023-03-22T08:42:50.377Z,999.86
2023-03-22T08:43:50.331Z,999.85
2023-03-22T08:44:50.315Z,999.85
2023-03-22T08:45:50.340Z,999.90
2023-03-22T08:46:50.350Z,999.89
2023-03-22T08:47:50.380Z,999.92
2023-03-22T08:48:50.276Z,999.92
2023-03-22T08:49:50.250Z,999.92
2023-03-22T08:50:50.252Z,999.83
2023-03-22T08:51:50.240Z,999.86
2023-03-22T08:52:50.246Z,999.87
2023-03-22T08:53:50.209Z,999.85
2023-03-22T08:54:50.200Z,999.88
2023-03-22T08:55:50.184Z,999.87
2023-03-22T08:56:50.217Z,999.80
2023-03-22T08:57:50.205Z,999.85
2023-03-22T08:58:50.165Z,999.81
2023-03-22T08:59:50.148Z,999.77
2023-03-22T09:00:50.361Z,999.81
2023-03-22T09:01:50.234Z,999.82
2023-03-22T09:02:50.118Z,999.76
2023-03-22T09:03:50.124Z,999.90
2023-03-22T09:04:50.217Z,999.83
2023-03-22T09:05:50.084Z,999.75
2023-03-22T09:06:50.067Z,999.83
2023-03-22T09:07:50.055Z,999.82
2023-03-22T09:08:50.039Z,999.79
2023-03-22T09:09:50.046Z,999.80
2023-03-22T09:10:50.023Z,999.85
2023-03-22T09:11:50.009Z,999.76
2023-03-22T09:12:50.007Z,999.75
2023-03-22T09:13:49.984Z,999.74
2023-03-22T09:14:50.016Z,999.83
2023-03-22T09:15:49.979Z,999.84
2023-03-22T09:16:49.962Z,999.75
2023-03-22T09:17:49.935Z,999.78
2023-03-22T09:18:49.937Z,999.72
2023-03-22T09:19:51.416Z,999.77
2023-03-22T09:20:49.913Z,999.69
2023-03-22T09:21:49.920Z,999.72
2023-03-22T09:22:49.884Z,999.75
2023-03-22T09:23:49.872Z,999.61
2023-03-22T09:24:49.873Z,999.78
2023-03-22T09:25:49.851Z,999.74
2023-03-22T09:26:49.852Z,999.75
2023-03-22T09:27:49.823Z,999.69
2023-03-22T09:28:49.981Z,999.78
2023-03-22T09:29:49.822Z,999.77
2023-03-22T09:30:49.822Z,999.86
2023-03-22T09:31:49.786Z,999.85
2023-03-22T09:32:49.763Z,999.72
2023-03-22T09:33:49.854Z,999.70
2023-03-22T09:34:49.762Z,999.76
2023-03-22T09:35:49.751Z,999.85
2023-03-22T09:36:49.748Z,999.84
2023-03-22T09:37:49.713Z,999.84
2023-03-22T09:38:49.710Z,999.70
2023-03-22T09:39:49.696Z,999.80
2023-03-22T09:40:49.687Z,999.71
2023-03-22T09:41:49.701Z,999.75
2023-03-22T09:42:49.656Z,999.84
2023-03-22T09:43:49.664Z,999.76
2023-03-22T09:44:49.645Z,999.74
2023-03-22T09:45:49.628Z,999.79
2023-03-22T09:46:49.655Z,999.69
2023-03-22T09:47:49.675Z,999.74
2023-03-22T09:48:49.597Z,999.74
2023-03-22T09:49:53.914Z,999.78
2023-03-22T09:50:49.585Z,999.77
2023-03-22T09:51:49.664Z,999.71
2023-03-22T09:52:49.545Z,999.78
2023-03-22T09:53:49.551Z,999.71
2023-03-22T09:54:52.227Z,999.71
2023-03-22T09:55:49.521Z,999.77
2023-03-22T09:56:49.531Z,999.79
2023-03-22T09:57:49.497Z,999.80
2023-03-22T09:58:49.504Z,999.72
2023-03-22T09:59:49.479Z,999.71
2023-03-22T10:00:49.584Z,999.68
2023-03-22T10:01:49.630Z,999.63
2023-03-22T10:02:49.481Z,999.68
2023-03-22T10:03:49.452Z,999.65
2023-03-22T10:04:49.456Z,999.64
2023-03-22T10:05:49.409Z,999.64
2023-03-22T10:06:49.424Z,999.63
2023-03-22T10:07:49.386Z,999.61
2023-03-22T10:08:49.374Z,999.70
2023-03-22T10:09:49.364Z,999.60
2023-03-22T10:10:49.351Z,999.62
2023-03-22T10:11:49.369Z,999.66
2023-03-22T10:12:49.333Z,999.62
2023-03-22T10:13:49.330Z,999.68
2023-03-22T10:14:49.316Z,999.71
2023-03-22T10:15:49.353Z,999.65
2023-03-22T10:16:49.313Z,999.69
2023-03-22T10:17:49.278Z,999.70
2023-03-22T10:18:49.265Z,999.68
2023-03-22T10:19:49.258Z,999.69
2023-03-22T10:20:49.244Z,999.72
2023-03-22T10:21:49.260Z,999.73
2023-03-22T10:22:49.683Z,999.64
2023-03-22T10:23:49.223Z,999.77
2023-03-22T10:24:49.197Z,999.69
2023-03-22T10:25:49.192Z,999.79
2023-03-22T10:26:49.212Z,999.73
2023-03-22T10:27:49.177Z,999.63
2023-03-22T10:28:49.174Z,999.55
2023-03-22T10:29:49.153Z,999.65
2023-03-22T10:30:49.128Z,999.68
2023-03-22T10:31:49.191Z,999.64
2023-03-22T10:32:57.551Z,999.67
2023-03-22T10:33:49.116Z,999.65
2023-03-22T10:34:49.088Z,999.49
2023-03-22T10:35:49.123Z,999.47
2023-03-22T10:36:49.087Z,999.46
2023-03-22T10:37:49.093Z,999.45
2023-03-22T10:38:49.058Z,999.48
2023-03-22T10:39:49.052Z,999.45
2023-03-22T10:40:49.024Z,999.45
2023-03-22T10:41:49.029Z,999.50
2023-03-22T10:42:48.997Z,999.35
2023-03-22T10:43:49.017Z,999.40
2023-03-22T10:44:48.985Z,999.45
2023-03-22T10:45:48.966Z,999.34
2023-03-22T10:46:48.985Z,999.49
2023-03-22T10:47:49.061Z,999.37
2023-03-22T10:48:48.963Z,999.52
2023-03-22T10:49:48.922Z,999.41
2023-03-22T10:50:48.924Z,999.43
2023-03-22T10:51:48.903Z,999.44
2023-03-22T10:52:48.894Z,999.39
2023-03-22T10:53:48.920Z,999.42
2023-03-22T10:54:48.869Z,999.47
2023-03-22T10:55:48.858Z,999.35
2023-03-22T10:56:48.852Z,999.41
2023-03-22T10:57:48.834Z,999.42
2023-03-22T10:58:48.829Z,999.38
2023-03-22T10:59:48.855Z,999.40
2023-03-22T11:00:48.926Z,999.38
2023-03-22T11:01:49.017Z,999.38
2023-03-22T11:02:48.815Z,999.46
2023-03-22T11:03:48.769Z,999.43
2023-03-22T11:04:48.770Z,999.45
2023-03-22T11:05:48.751Z,999.46
2023-03-22T11:06:48.744Z,999.47
2023-03-22T11:07:48.725Z,999.49
2023-03-22T11:08:48.717Z,999.49
2023-03-22T11:09:48.732Z,999.52
2023-03-22T11:10:48.729Z,999.50
2023-03-22T11:11:48.682Z,999.54
2023-03-22T11:12:48.672Z,999.51
2023-03-22T11:13:48.654Z,999.46
2023-03-22T11:14:48.664Z,999.55
2023-03-22T11:15:48.629Z,999.50
2023-03-22T11:16:48.655Z,999.48
2023-03-22T11:17:48.612Z,999.51
2023-03-22T11:18:48.590Z,999.53
2023-03-22T11:19:48.625Z,999.53
2023-03-22T11:20:48.615Z,999.57
2023-03-22T11:21:48.559Z,999.47
2023-03-22T11:22:48.557Z,999.51
2023-03-22T11:23:48.540Z,999.60
2023-03-22T11:24:48.538Z,999.51
2023-03-22T11:25:48.599Z,999.55
2023-03-22T11:26:48.508Z,999.47
2023-03-22T11:27:48.498Z,999.47
2023-03-22T11:28:48.485Z,999.49
2023-03-22T11:29:48.487Z,999.47
2023-03-22T11:30:48.479Z,999.55
2023-03-22T11:31:48.510Z,999.59
2023-03-22T11:32:48.514Z,999.57
2023-03-22T11:33:48.423Z,999.57
2023-03-22T11:34:48.426Z,999.66
2023-03-22T11:35:48.444Z,999.57
2023-03-22T11:37:48.381Z,999.54
2023-03-22T11:38:48.917Z,999.53
2023-03-22T11:39:48.370Z,999.53
2023-03-22T11:40:48.341Z,999.56
2023-03-22T11:41:48.356Z,999.62
2023-03-22T11:42:48.312Z,999.52
2023-03-22T11:43:48.371Z,999.50
2023-03-22T11:44:48.308Z,999.46
2023-03-22T11:45:48.314Z,999.48
2023-03-22T11:46:48.299Z,999.48
2023-03-22T11:47:48.398Z,999.47
2023-03-22T11:48:48.428Z,999.52
2023-03-22T11:49:48.252Z,999.47
2023-03-22T11:50:48.226Z,999.52
2023-03-22T11:51:48.240Z,999.46
2023-03-22T11:52:48.208Z,999.51
2023-03-22T11:53:48.219Z,999.49
2023-03-22T11:54:48.185Z,999.41
2023-03-22T11:55:48.171Z,999.46
2023-03-22T11:56:48.194Z,999.46
2023-03-22T11:57:48.177Z,999.45
2023-03-22T11:58:48.130Z,999.49
2023-03-22T11:59:48.138Z,999.49
2023-03-22T12:00:48.115Z,999.40
2023-03-22T12:01:48.107Z,999.36
2023-03-22T12:02:48.163Z,999.41
2023-03-22T12:03:48.172Z,999.40
2023-03-22T12:04:48.157Z,999.45
2023-03-22T12:05:48.083Z,999.37
2023-03-22T12:06:48.044Z,999.40
2023-03-22T12:07:48.067Z,999.37
2023-03-22T12:08:48.023Z,999.37
2023-03-22T12:09:48.017Z,999.37
2023-03-22T12:10:48.010Z,999.31
2023-03-22T12:11:47.986Z,999.32
2023-03-22T12:12:48.047Z,999.35
2023-03-22T12:13:47.973Z,999.36
2023-03-22T12:14:47.960Z,999.39
2023-03-22T12:15:48.021Z,999.32